sensor_id;sensor_type;location;lat;lon;timestamp;pressure;altitude;pressure_sealevel;temperature;humidity
69842;BME280;57138;51.326;-0.068;2022-12-26T00:00:59;99000.38;;;8.26;100.00
69842;BME280;57138;51.326;-0.068;2022-12-26T00:03:25;99003.84;;;8.26;100.00
69842;BME280;57138;51.326;-0.068;2022-12-26T00:05:51;98998.13;;;8.30;100.00
69842;BME280;57138;51.326;-0.068;2022-12-26T00:08:16;98992.78;;;8.30;100.00
69842;BME280;57138;51.326;-0.068;2022-12-26T00:10:42;98994.22;;;8.25;100.00
69842;BME280;57138;51.326;-0.068;2022-12-26T00:13:07;98984.38;;;8.19;100.00
69842;BME280;57138;51.326;-0.068;2022-12-26T00:15:33;98976.38;;;8.19;100.00
69842;BME280;57138;51.326;-0.068;2022-12-26T00:17:58;98978.03;;;8.20;100.00
69842;BME280;57138;51.326;-0.068;2022-12-26T00:20:24;98985.00;;;8.21;100.00
69842;BME280;57138;51.326;-0.068;2022-12-26T00:22:49;98974.75;;;8.18;100.00
69842;BME280;57138;51.326;-0.068;2022-12-26T00:25:15;98977.63;;;8.17;100.00
69842;BME280;57138;51.326;-0.068;2022-12-26T00:27:40;98973.94;;;8.18;100.00
69842;BME280;57138;51.326;-0.068;2022-12-26T00:30:07;98966.56;;;8.20;100.00
69842;BME280;57138;51.326;-0.068;2022-12-26T00:32:32;98972.72;;;8.27;100.00
69842;BME280;57138;51.326;-0.068;2022-12-26T00:34:58;98971.91;;;8.26;100.00
69842;BME280;57138;51.326;-0.068;2022-12-26T00:37:23;98965.97;;;8.24;100.00
69842;BME280;57138;51.326;-0.068;2022-12-26T00:39:48;98963.31;;;8.24;100.00
69842;BME280;57138;51.326;-0.068;2022-12-26T00:42:14;98969.03;;;8.28;100.00
69842;BME280;57138;51.326;-0.068;2022-12-26T00:44:39;98970.25;;;8.25;100.00
69842;BME280;57138;51.326;-0.068;2022-12-26T00:47:04;98957.78;;;8.26;100.00
69842;BME280;57138;51.326;-0.068;2022-12-26T00:49:30;98965.75;;;8.33;100.00
69842;BME280;57138;51.326;-0.068;2022-12-26T00:51:55;98967.19;;;8.35;100.00
69842;BME280;57138;51.326;-0.068;2022-12-26T00:54:21;98967.00;;;8.37;100.00
69842;BME280;57138;51.326;-0.068;2022-12-26T00:56:46;98964.53;;;8.35;100.00
69842;BME280;57138;51.326;-0.068;2022-12-26T00:59:11;98973.53;;;8.41;100.00
69842;BME280;57138;51.326;-0.068;2022-12-26T01:01:37;98972.72;;;8.40;100.00
69842;BME280;57138;51.326;-0.068;2022-12-26T01:04:02;98964.94;;;8.39;100.00
69842;BME280;57138;51.326;-0.068;2022-12-26T01:06:29;98959.19;;;8.42;100.00
69842;BME280;57138;51.326;-0.068;2022-12-26T01:08:54;98955.94;;;8.40;100.00
69842;BME280;57138;51.326;-0.068;2022-12-26T01:11:20;98955.09;;;8.39;100.00
69842;BME280;57138;51.326;-0.068;2022-12-26T01:16:33;98971.91;;;8.33;100.00
69842;BME280;57138;51.326;-0.068;2022-12-26T01:18:58;98960.44;;;8.33;100.00
69842;BME280;57138;51.326;-0.068;2022-12-26T01:21:23;98972.94;;;8.39;100.00
69842;BME280;57138;51.326;-0.068;2022-12-26T01:23:49;98964.94;;;8.32;100.00
69842;BME280;57138;51.326;-0.068;2022-12-26T01:26:14;98968.63;;;8.38;100.00
69842;BME280;57138;51.326;-0.068;2022-12-26T01:28:39;98971.06;;;8.39;100.00
69842;BME280;57138;51.326;-0.068;2022-12-26T01:31:05;98965.16;;;8.37;100.00
69842;BME280;57138;51.326;-0.068;2022-12-26T01:33:31;98962.06;;;8.34;100.00
69842;BME280;57138;51.326;-0.068;2022-12-26T01:35:57;98973.53;;;8.34;100.00
69842;BME280;57138;51.326;-0.068;2022-12-26T01:38:23;98976.41;;;8.39;100.00
69842;BME280;57138;51.326;-0.068;2022-12-26T01:40:49;98954.28;;;8.39;100.00
69842;BME280;57138;51.326;-0.068;2022-12-26T01:46:15;98966.59;;;8.40;100.00
69842;BME280;57138;51.326;-0.068;2022-12-26T01:48:43;98971.94;;;8.47;100.00
69842;BME280;57138;51.326;-0.068;2022-12-26T01:51:10;98967.03;;;8.43;100.00
69842;BME280;57138;51.326;-0.068;2022-12-26T01:53:41;98979.72;;;8.48;100.00
69842;BME280;57138;51.326;-0.068;2022-12-26T01:56:15;98985.06;;;8.48;100.00
69842;BME280;57138;51.326;-0.068;2022-12-26T01:58:52;98985.66;;;8.50;100.00
69842;BME280;57138;51.326;-0.068;2022-12-26T02:01:20;98992.00;;;8.49;100.00
69842;BME280;57138;51.326;-0.068;2022-12-26T02:03:48;98967.00;;;8.50;100.00
69842;BME280;57138;51.326;-0.068;2022-12-26T02:06:33;98991.78;;;8.51;100.00
69842;BME280;57138;51.326;-0.068;2022-12-26T02:08:59;98977.25;;;8.53;100.00
69842;BME280;57138;51.326;-0.068;2022-12-26T02:11:34;98978.91;;;8.54;99.71
69842;BME280;57138;51.326;-0.068;2022-12-26T02:14:00;98965.16;;;8.51;99.38
69842;BME280;57138;51.326;-0.068;2022-12-26T02:16:26;98974.41;;;8.48;99.62
69842;BME280;57138;51.326;-0.068;2022-12-26T02:18:52;98964.34;;;8.50;99.51
69842;BME280;57138;51.326;-0.068;2022-12-26T02:24:25;98971.94;;;8.53;99.62
69842;BME280;57138;51.326;-0.068;2022-12-26T02:35:26;98987.91;;;8.53;99.38
69842;BME280;57138;51.326;-0.068;2022-12-26T02:38:02;98986.91;;;8.54;99.60
69842;BME280;57138;51.326;-0.068;2022-12-26T02:40:41;98964.75;;;8.47;99.07
69842;BME280;57138;51.326;-0.068;2022-12-26T02:43:38;98976.84;;;8.56;100.00
69842;BME280;57138;51.326;-0.068;2022-12-26T02:49:47;98993.22;;;8.60;100.00
69842;BME280;57138;51.326;-0.068;2022-12-26T02:52:28;98989.16;;;8.57;100.00
69842;BME280;57138;51.326;-0.068;2022-12-26T02:55:20;98992.81;;;8.56;99.13
69842;BME280;57138;51.326;-0.068;2022-12-26T02:58:20;98995.69;;;8.61;99.60
69842;BME280;57138;51.326;-0.068;2022-12-26T03:01:13;99007.19;;;8.62;99.67
69842;BME280;57138;51.326;-0.068;2022-12-26T03:04:02;99004.09;;;8.58;99.41
69842;BME280;57138;51.326;-0.068;2022-12-26T03:06:53;99010.47;;;8.57;99.81
69842;BME280;57138;51.326;-0.068;2022-12-26T03:09:40;99019.06;;;8.59;100.00
69842;BME280;57138;51.326;-0.068;2022-12-26T03:12:59;99019.06;;;8.59;99.96
69842;BME280;57138;51.326;-0.068;2022-12-26T03:15:45;99026.44;;;8.64;100.00
69842;BME280;57138;51.326;-0.068;2022-12-26T03:18:33;99027.03;;;8.66;99.98
69842;BME280;57138;51.326;-0.068;2022-12-26T03:21:00;99027.25;;;8.64;100.00
69842;BME280;57138;51.326;-0.068;2022-12-26T03:23:26;99039.56;;;8.66;100.00
69842;BME280;57138;51.326;-0.068;2022-12-26T03:25:54;99039.56;;;8.66;100.00
69842;BME280;57138;51.326;-0.068;2022-12-26T03:28:40;99037.91;;;8.64;99.83
69842;BME280;57138;51.326;-0.068;2022-12-26T03:31:09;99040.38;;;8.59;99.90
69842;BME280;57138;51.326;-0.068;2022-12-26T03:33:38;99043.84;;;8.60;99.64
69842;BME280;57138;51.326;-0.068;2022-12-26T03:51:11;99044.47;;;8.55;98.63
69842;BME280;57138;51.326;-0.068;2022-12-26T03:54:24;99056.38;;;8.59;98.92
69842;BME280;57138;51.326;-0.068;2022-12-26T03:57:13;99064.16;;;8.61;98.68
69842;BME280;57138;51.326;-0.068;2022-12-26T04:00:04;99069.47;;;8.61;97.96
69842;BME280;57138;51.326;-0.068;2022-12-26T04:02:49;99075.22;;;8.58;97.84
69842;BME280;57138;51.326;-0.068;2022-12-26T04:05:36;99094.47;;;8.53;97.59
69842;BME280;57138;51.326;-0.068;2022-12-26T04:08:28;99095.69;;;8.44;98.10
69842;BME280;57138;51.326;-0.068;2022-12-26T04:11:15;99095.84;;;8.36;98.29
69842;BME280;57138;51.326;-0.068;2022-12-26T04:14:10;99090.31;;;8.31;97.46
69842;BME280;57138;51.326;-0.068;2022-12-26T04:20:17;99109.91;;;8.16;97.71
69842;BME280;57138;51.326;-0.068;2022-12-26T04:22:51;99124.66;;;8.12;97.43
69842;BME280;57138;51.326;-0.068;2022-12-26T04:25:45;99132.00;;;8.10;97.55
69842;BME280;57138;51.326;-0.068;2022-12-26T04:28:31;99134.47;;;8.05;97.38
69842;BME280;57138;51.326;-0.068;2022-12-26T04:31:28;99153.28;;;8.03;97.44
69842;BME280;57138;51.326;-0.068;2022-12-26T04:34:43;99162.69;;;7.99;96.91
69842;BME280;57138;51.326;-0.068;2022-12-26T04:37:25;99152.41;;;7.89;96.67
69842;BME280;57138;51.326;-0.068;2022-12-26T04:40:18;99168.56;;;7.88;96.38
69842;BME280;57138;51.326;-0.068;2022-12-26T04:43:04;99177.16;;;7.83;97.04
69842;BME280;57138;51.326;-0.068;2022-12-26T04:45:49;99175.72;;;7.81;96.70
69842;BME280;57138;51.326;-0.068;2022-12-26T04:48:15;99171.59;;;7.78;96.39
69842;BME280;57138;51.326;-0.068;2022-12-26T04:50:59;99177.94;;;7.77;96.14
69842;BME280;57138;51.326;-0.068;2022-12-26T04:53:24;99188.78;;;7.76;96.05
69842;BME280;57138;51.326;-0.068;2022-12-26T04:55:50;99180.13;;;7.67;96.00
69842;BME280;57138;51.326;-0.068;2022-12-26T04:58:15;99185.88;;;7.70;95.89
69842;BME280;57138;51.326;-0.068;2022-12-26T05:00:42;99190.78;;;7.67;95.17
69842;BME280;57138;51.326;-0.068;2022-12-26T05:03:11;99209.22;;;7.68;95.11
69842;BME280;57138;51.326;-0.068;2022-12-26T05:05:56;99202.44;;;7.66;95.13
69842;BME280;57138;51.326;-0.068;2022-12-26T05:08:42;99205.47;;;7.63;94.49
69842;BME280;57138;51.326;-0.068;2022-12-26T05:11:27;99223.47;;;7.61;94.95
69842;BME280;57138;51.326;-0.068;2022-12-26T05:13:55;99225.50;;;7.59;94.87
69842;BME280;57138;51.326;-0.068;2022-12-26T05:16:21;99225.88;;;7.55;94.63
69842;BME280;57138;51.326;-0.068;2022-12-26T05:19:09;99237.94;;;7.51;93.73
69842;BME280;57138;51.326;-0.068;2022-12-26T05:21:53;99256.94;;;7.48;94.50
69842;BME280;57138;51.326;-0.068;2022-12-26T05:24:38;99257.13;;;7.47;94.29
69842;BME280;57138;51.326;-0.068;2022-12-26T05:27:23;99258.94;;;7.46;93.49
69842;BME280;57138;51.326;-0.068;2022-12-26T05:30:08;99273.47;;;7.44;93.46
69842;BME280;57138;51.326;-0.068;2022-12-26T05:32:34;99267.44;;;7.35;93.44
69842;BME280;57138;51.326;-0.068;2022-12-26T05:35:18;99283.03;;;7.38;93.21
69842;BME280;57138;51.326;-0.068;2022-12-26T05:37:44;99292.41;;;7.34;93.55
69842;BME280;57138;51.326;-0.068;2022-12-26T05:40:09;99306.34;;;7.36;93.77
69842;BME280;57138;51.326;-0.068;2022-12-26T05:42:35;99311.22;;;7.32;93.49
69842;BME280;57138;51.326;-0.068;2022-12-26T05:45:00;99313.69;;;7.34;93.08
69842;BME280;57138;51.326;-0.068;2022-12-26T05:47:26;99317.09;;;7.28;93.32
69842;BME280;57138;51.326;-0.068;2022-12-26T05:49:51;99346.34;;;7.28;93.85
69842;BME280;57138;51.326;-0.068;2022-12-26T05:52:17;99361.03;;;7.24;92.38
69842;BME280;57138;51.326;-0.068;2022-12-26T05:54:42;99345.59;;;6.97;89.78
69842;BME280;57138;51.326;-0.068;2022-12-26T05:57:08;99359.28;;;6.79;90.18
69842;BME280;57138;51.326;-0.068;2022-12-26T05:59:33;99346.38;;;6.61;90.28
69842;BME280;57138;51.326;-0.068;2022-12-26T06:01:58;99367.91;;;6.52;89.97
69842;BME280;57138;51.326;-0.068;2022-12-26T06:04:24;99377.34;;;6.39;90.38
69842;BME280;57138;51.326;-0.068;2022-12-26T06:06:51;99382.63;;;6.24;88.79
69842;BME280;57138;51.326;-0.068;2022-12-26T06:09:21;99380.22;;;6.15;89.08
69842;BME280;57138;51.326;-0.068;2022-12-26T06:11:47;99398.34;;;6.11;89.36
69842;BME280;57138;51.326;-0.068;2022-12-26T06:14:13;99397.13;;;5.99;88.38
69842;BME280;57138;51.326;-0.068;2022-12-26T06:16:39;99399.44;;;5.93;88.13
69842;BME280;57138;51.326;-0.068;2022-12-26T06:19:04;99403.66;;;5.88;85.91
69842;BME280;57138;51.326;-0.068;2022-12-26T06:21:29;99413.78;;;5.84;87.29
69842;BME280;57138;51.326;-0.068;2022-12-26T06:23:55;99407.56;;;5.77;86.33
69842;BME280;57138;51.326;-0.068;2022-12-26T06:26:20;99432.41;;;5.76;85.36
69842;BME280;57138;51.326;-0.068;2022-12-26T06:28:46;99433.59;;;5.73;86.65
69842;BME280;57138;51.326;-0.068;2022-12-26T06:31:18;99441.25;;;5.68;87.13
69842;BME280;57138;51.326;-0.068;2022-12-26T06:33:46;99443.91;;;5.68;87.28
69842;BME280;57138;51.326;-0.068;2022-12-26T06:36:14;99443.25;;;5.66;87.34
69842;BME280;57138;51.326;-0.068;2022-12-26T06:38:40;99443.63;;;5.63;86.85
69842;BME280;57138;51.326;-0.068;2022-12-26T06:41:11;99455.22;;;5.62;86.44
69842;BME280;57138;51.326;-0.068;2022-12-26T06:43:37;99459.53;;;5.63;85.31
69842;BME280;57138;51.326;-0.068;2022-12-26T06:46:04;99463.50;;;5.59;86.87
69842;BME280;57138;51.326;-0.068;2022-12-26T06:48:31;99470.19;;;5.55;86.69
69842;BME280;57138;51.326;-0.068;2022-12-26T06:50:56;99473.53;;;5.49;87.21
69842;BME280;57138;51.326;-0.068;2022-12-26T06:53:23;99481.84;;;5.46;87.14
69842;BME280;57138;51.326;-0.068;2022-12-26T06:55:49;99476.91;;;5.34;86.33
69842;BME280;57138;51.326;-0.068;2022-12-26T06:58:16;99495.63;;;5.33;86.24
69842;BME280;57138;51.326;-0.068;2022-12-26T07:00:41;99490.19;;;5.26;86.89
69842;BME280;57138;51.326;-0.068;2022-12-26T07:03:07;99491.72;;;5.20;86.61
69842;BME280;57138;51.326;-0.068;2022-12-26T07:05:35;99499.84;;;5.19;86.24
69842;BME280;57138;51.326;-0.068;2022-12-26T07:08:01;99504.00;;;5.13;85.31
69842;BME280;57138;51.326;-0.068;2022-12-26T07:10:27;99518.75;;;5.08;86.55
69842;BME280;57138;51.326;-0.068;2022-12-26T07:12:52;99518.44;;;5.02;87.33
69842;BME280;57138;51.326;-0.068;2022-12-26T07:15:17;99527.38;;;5.01;86.67
69842;BME280;57138;51.326;-0.068;2022-12-26T07:17:43;99525.72;;;4.92;86.14
69842;BME280;57138;51.326;-0.068;2022-12-26T07:20:09;99530.53;;;4.89;86.18
69842;BME280;57138;51.326;-0.068;2022-12-26T07:22:34;99540.66;;;4.85;86.95
69842;BME280;57138;51.326;-0.068;2022-12-26T07:25:00;99555.22;;;4.81;86.11
69842;BME280;57138;51.326;-0.068;2022-12-26T07:27:25;99553.25;;;4.75;86.16
69842;BME280;57138;51.326;-0.068;2022-12-26T07:29:51;99560.38;;;4.74;86.49
69842;BME280;57138;51.326;-0.068;2022-12-26T07:32:16;99561.84;;;4.68;85.87
69842;BME280;57138;51.326;-0.068;2022-12-26T07:34:41;99567.66;;;4.64;86.94
69842;BME280;57138;51.326;-0.068;2022-12-26T07:37:07;99571.16;;;4.64;86.76
69842;BME280;57138;51.326;-0.068;2022-12-26T07:39:33;99576.09;;;4.59;86.73
69842;BME280;57138;51.326;-0.068;2022-12-26T07:41:59;99573.94;;;4.55;87.14
69842;BME280;57138;51.326;-0.068;2022-12-26T07:44:30;99569.13;;;4.50;87.44
69842;BME280;57138;51.326;-0.068;2022-12-26T07:46:55;99579.06;;;4.48;86.94
69842;BME280;57138;51.326;-0.068;2022-12-26T07:49:21;99590.00;;;4.45;86.51
69842;BME280;57138;51.326;-0.068;2022-12-26T07:51:48;99594.97;;;4.40;87.05
69842;BME280;57138;51.326;-0.068;2022-12-26T07:54:14;99608.50;;;4.37;87.21
69842;BME280;57138;51.326;-0.068;2022-12-26T07:56:40;99622.91;;;4.34;87.00
69842;BME280;57138;51.326;-0.068;2022-12-26T07:59:06;99618.75;;;4.31;87.29
69842;BME280;57138;51.326;-0.068;2022-12-26T08:01:31;99622.72;;;4.27;86.70
69842;BME280;57138;51.326;-0.068;2022-12-26T08:03:57;99622.34;;;4.22;87.09
69842;BME280;57138;51.326;-0.068;2022-12-26T08:06:22;99630.28;;;4.22;86.96
69842;BME280;57138;51.326;-0.068;2022-12-26T08:08:49;99645.53;;;4.20;87.57
69842;BME280;57138;51.326;-0.068;2022-12-26T08:11:16;99650.16;;;4.18;87.20
69842;BME280;57138;51.326;-0.068;2022-12-26T08:13:43;99659.91;;;4.18;87.00
69842;BME280;57138;51.326;-0.068;2022-12-26T08:16:11;99659.38;;;4.14;87.09
69842;BME280;57138;51.326;-0.068;2022-12-26T08:18:37;99662.34;;;4.11;87.55
69842;BME280;57138;51.326;-0.068;2022-12-26T08:21:02;99665.31;;;4.08;87.05
69842;BME280;57138;51.326;-0.068;2022-12-26T08:23:28;99675.25;;;4.06;86.52
69842;BME280;57138;51.326;-0.068;2022-12-26T08:25:54;99679.56;;;4.07;87.51
69842;BME280;57138;51.326;-0.068;2022-12-26T08:28:19;99678.22;;;4.03;87.50
69842;BME280;57138;51.326;-0.068;2022-12-26T08:30:45;99686.97;;;4.03;87.14
69842;BME280;57138;51.326;-0.068;2022-12-26T08:33:11;99688.13;;;4.01;87.58
69842;BME280;57138;51.326;-0.068;2022-12-26T08:35:38;99692.72;;;3.99;87.85
69842;BME280;57138;51.326;-0.068;2022-12-26T08:38:05;99700.16;;;3.95;87.38
69842;BME280;57138;51.326;-0.068;2022-12-26T08:40:31;99706.28;;;3.95;87.84
69842;BME280;57138;51.326;-0.068;2022-12-26T08:42:57;99709.53;;;3.89;87.76
69842;BME280;57138;51.326;-0.068;2022-12-26T08:45:23;99725.41;;;3.89;88.09
69842;BME280;57138;51.326;-0.068;2022-12-26T08:47:48;99735.50;;;3.86;88.20
69842;BME280;57138;51.326;-0.068;2022-12-26T08:50:14;99744.09;;;3.88;88.18
69842;BME280;57138;51.326;-0.068;2022-12-26T08:52:41;99737.47;;;3.84;88.11
69842;BME280;57138;51.326;-0.068;2022-12-26T08:55:07;99747.34;;;3.82;87.58
69842;BME280;57138;51.326;-0.068;2022-12-26T08:57:33;99747.19;;;3.83;88.09
69842;BME280;57138;51.326;-0.068;2022-12-26T08:59:58;99755.81;;;3.85;87.84
69842;BME280;57138;51.326;-0.068;2022-12-26T09:02:23;99758.63;;;3.84;87.96
69842;BME280;57138;51.326;-0.068;2022-12-26T09:04:50;99766.41;;;3.85;88.48
69842;BME280;57138;51.326;-0.068;2022-12-26T09:07:15;99770.03;;;3.84;88.04
69842;BME280;57138;51.326;-0.068;2022-12-26T09:09:41;99775.00;;;3.87;88.21
69842;BME280;57138;51.326;-0.068;2022-12-26T09:12:06;99782.94;;;3.87;88.09
69842;BME280;57138;51.326;-0.068;2022-12-26T09:14:32;99787.91;;;3.90;88.07
69842;BME280;57138;51.326;-0.068;2022-12-26T09:16:57;99791.38;;;3.91;87.94
69842;BME280;57138;51.326;-0.068;2022-12-26T09:19:22;99804.44;;;3.92;88.48
69842;BME280;57138;51.326;-0.068;2022-12-26T09:21:49;99800.00;;;3.93;88.95
69842;BME280;57138;51.326;-0.068;2022-12-26T09:24:35;99804.84;;;3.98;88.39
69842;BME280;57138;51.326;-0.068;2022-12-26T09:27:00;99795.84;;;3.90;88.50
69842;BME280;57138;51.326;-0.068;2022-12-26T09:29:25;99808.16;;;4.00;88.53
69842;BME280;57138;51.326;-0.068;2022-12-26T09:31:53;99807.31;;;3.99;88.32
69842;BME280;57138;51.326;-0.068;2022-12-26T09:34:19;99821.06;;;4.03;88.84
69842;BME280;57138;51.326;-0.068;2022-12-26T09:36:44;99824.22;;;4.06;88.37
69842;BME280;57138;51.326;-0.068;2022-12-26T09:39:10;99823.25;;;4.07;88.88
69842;BME280;57138;51.326;-0.068;2022-12-26T09:41:45;99827.25;;;4.11;88.98
69842;BME280;57138;51.326;-0.068;2022-12-26T09:44:20;99838.66;;;4.12;88.59
69842;BME280;57138;51.326;-0.068;2022-12-26T09:47:20;99832.38;;;4.13;88.83
69842;BME280;57138;51.326;-0.068;2022-12-26T09:52:33;99847.28;;;4.22;89.24
69842;BME280;57138;51.326;-0.068;2022-12-26T09:55:04;99850.63;;;4.24;89.05
69842;BME280;57138;51.326;-0.068;2022-12-26T09:57:41;99865.88;;;4.30;88.97
69842;BME280;57138;51.326;-0.068;2022-12-26T10:00:18;99857.94;;;4.30;88.84
69842;BME280;57138;51.326;-0.068;2022-12-26T10:02:48;99860.59;;;4.30;88.61
69842;BME280;57138;51.326;-0.068;2022-12-26T10:05:15;99861.91;;;4.35;89.21
69842;BME280;57138;51.326;-0.068;2022-12-26T10:07:45;99873.56;;;4.42;89.02
69842;BME280;57138;51.326;-0.068;2022-12-26T10:16:07;99899.09;;;4.51;88.52
69842;BME280;57138;51.326;-0.068;2022-12-26T10:18:42;99902.41;;;4.53;88.20
69842;BME280;57138;51.326;-0.068;2022-12-26T10:24:15;99913.69;;;4.55;88.35
69842;BME280;57138;51.326;-0.068;2022-12-26T10:26:47;99919.63;;;4.57;88.37
69842;BME280;57138;51.326;-0.068;2022-12-26T10:29:18;99922.94;;;4.59;88.35
69842;BME280;57138;51.326;-0.068;2022-12-26T10:31:59;99914.03;;;4.60;87.77
69842;BME280;57138;51.326;-0.068;2022-12-26T10:34:40;99923.81;;;4.60;87.92
69842;BME280;57138;51.326;-0.068;2022-12-26T10:37:15;99921.97;;;4.60;87.72
69842;BME280;57138;51.326;-0.068;2022-12-26T10:39:57;99929.75;;;4.62;87.54
69842;BME280;57138;51.326;-0.068;2022-12-26T10:42:37;99934.25;;;4.61;87.35
69842;BME280;57138;51.326;-0.068;2022-12-26T10:45:32;99943.19;;;4.68;86.56
69842;BME280;57138;51.326;-0.068;2022-12-26T10:47:59;99940.56;;;4.68;86.52
69842;BME280;57138;51.326;-0.068;2022-12-26T10:50:28;99947.50;;;4.70;86.78
69842;BME280;57138;51.326;-0.068;2022-12-26T10:52:56;99949.19;;;4.71;86.00
69842;BME280;57138;51.326;-0.068;2022-12-26T10:55:27;99941.56;;;4.67;85.99
69842;BME280;57138;51.326;-0.068;2022-12-26T10:57:54;99941.91;;;4.73;86.11
69842;BME280;57138;51.326;-0.068;2022-12-26T11:00:21;99948.69;;;4.75;86.66
69842;BME280;57138;51.326;-0.068;2022-12-26T11:03:07;99950.88;;;4.80;87.02
69842;BME280;57138;51.326;-0.068;2022-12-26T11:05:54;99947.75;;;4.84;86.51
69842;BME280;57138;51.326;-0.068;2022-12-26T11:11:30;99960.50;;;4.89;86.34
69842;BME280;57138;51.326;-0.068;2022-12-26T11:14:29;99965.50;;;4.92;85.93
69842;BME280;57138;51.326;-0.068;2022-12-26T11:16:58;99964.22;;;4.96;86.13
69842;BME280;57138;51.326;-0.068;2022-12-26T11:19:46;99964.88;;;4.98;86.25
69842;BME280;57138;51.326;-0.068;2022-12-26T11:22:24;99968.56;;;5.06;85.44
69842;BME280;57138;51.326;-0.068;2022-12-26T11:27:35;99971.59;;;5.19;85.09
69842;BME280;57138;51.326;-0.068;2022-12-26T11:30:16;99974.59;;;5.24;85.01
69842;BME280;57138;51.326;-0.068;2022-12-26T11:32:43;99979.25;;;5.30;84.45
69842;BME280;57138;51.326;-0.068;2022-12-26T11:37:45;99976.94;;;5.35;84.00
69842;BME280;57138;51.326;-0.068;2022-12-26T11:40:46;99974.97;;;5.37;82.64
69842;BME280;57138;51.326;-0.068;2022-12-26T11:43:37;99980.59;;;5.34;84.00
69842;BME280;57138;51.326;-0.068;2022-12-26T11:46:03;99982.44;;;5.42;83.84
69842;BME280;57138;51.326;-0.068;2022-12-26T11:48:29;99990.22;;;5.44;83.80
69842;BME280;57138;51.326;-0.068;2022-12-26T11:50:54;99987.94;;;5.49;83.77
69842;BME280;57138;51.326;-0.068;2022-12-26T11:53:22;99991.91;;;5.53;83.92
69842;BME280;57138;51.326;-0.068;2022-12-26T11:55:59;99985.63;;;5.54;83.44
69842;BME280;57138;51.326;-0.068;2022-12-26T11:58:27;99986.81;;;5.60;83.48
69842;BME280;57138;51.326;-0.068;2022-12-26T12:03:41;99985.00;;;5.68;82.96
69842;BME280;57138;51.326;-0.068;2022-12-26T12:09:26;99982.88;;;5.72;82.71
69842;BME280;57138;51.326;-0.068;2022-12-26T12:12:03;99977.25;;;5.75;82.29
69842;BME280;57138;51.326;-0.068;2022-12-26T12:14:43;99976.38;;;5.74;83.27
69842;BME280;57138;51.326;-0.068;2022-12-26T12:20:22;99981.03;;;5.81;82.37
69842;BME280;57138;51.326;-0.068;2022-12-26T12:26:16;99974.44;;;5.85;82.40
69842;BME280;57138;51.326;-0.068;2022-12-26T12:34:10;99974.75;;;5.90;82.40
69842;BME280;57138;51.326;-0.068;2022-12-26T12:58:36;99971.41;;;5.71;79.32
69842;BME280;57138;51.326;-0.068;2022-12-26T13:01:09;99989.97;;;5.80;79.81
69842;BME280;57138;51.326;-0.068;2022-12-26T13:03:49;99987.69;;;5.85;79.79
69842;BME280;57138;51.326;-0.068;2022-12-26T13:06:26;99994.31;;;5.89;79.94
69842;BME280;57138;51.326;-0.068;2022-12-26T13:09:04;99991.50;;;5.90;79.85
69842;BME280;57138;51.326;-0.068;2022-12-26T13:11:35;99988.84;;;5.90;79.96
69842;BME280;57138;51.326;-0.068;2022-12-26T13:14:24;99994.84;;;5.92;79.29
69842;BME280;57138;51.326;-0.068;2022-12-26T13:16:57;100012.56;;;5.92;79.23
69842;BME280;57138;51.326;-0.068;2022-12-26T13:22:26;99997.13;;;5.87;78.47
69842;BME280;57138;51.326;-0.068;2022-12-26T13:25:18;99986.03;;;5.84;78.43
69842;BME280;57138;51.326;-0.068;2022-12-26T13:27:46;99994.97;;;5.83;78.38
69842;BME280;57138;51.326;-0.068;2022-12-26T13:30:16;99990.69;;;5.82;78.02
69842;BME280;57138;51.326;-0.068;2022-12-26T13:32:41;99985.38;;;5.82;77.43
69842;BME280;57138;51.326;-0.068;2022-12-26T13:38:10;99987.69;;;5.76;76.43
69842;BME280;57138;51.326;-0.068;2022-12-26T13:40:36;99987.16;;;5.73;76.63
69842;BME280;57138;51.326;-0.068;2022-12-26T13:45:52;99984.00;;;5.69;75.60
69842;BME280;57138;51.326;-0.068;2022-12-26T13:50:54;99983.19;;;5.69;76.55
69842;BME280;57138;51.326;-0.068;2022-12-26T13:55:59;99974.38;;;5.60;75.39
69842;BME280;57138;51.326;-0.068;2022-12-26T14:01:48;99993.28;;;5.65;75.79
69842;BME280;57138;51.326;-0.068;2022-12-26T14:10:05;100001.72;;;5.61;76.19
69842;BME280;57138;51.326;-0.068;2022-12-26T14:15:45;100013.28;;;5.51;76.58
69842;BME280;57138;51.326;-0.068;2022-12-26T14:21:27;100025.38;;;5.46;77.06
69842;BME280;57138;51.326;-0.068;2022-12-26T14:24:17;100019.72;;;5.40;77.38
69842;BME280;57138;51.326;-0.068;2022-12-26T14:37:22;100041.38;;;5.28;79.25
69842;BME280;57138;51.326;-0.068;2022-12-26T14:43:04;100039.88;;;5.25;79.34
69842;BME280;57138;51.326;-0.068;2022-12-26T14:45:47;100045.81;;;5.19;79.16
69842;BME280;57138;51.326;-0.068;2022-12-26T15:30:48;100088.59;;;4.80;80.24
69842;BME280;57138;51.326;-0.068;2022-12-26T15:33:25;100097.56;;;4.79;80.35
69842;BME280;57138;51.326;-0.068;2022-12-26T15:36:04;100096.19;;;4.75;80.74
69842;BME280;57138;51.326;-0.068;2022-12-26T15:38:47;100100.47;;;4.67;81.01
69842;BME280;57138;51.326;-0.068;2022-12-26T15:41:41;100105.75;;;4.67;81.26
69842;BME280;57138;51.326;-0.068;2022-12-26T15:44:23;100109.69;;;4.63;81.32
69842;BME280;57138;51.326;-0.068;2022-12-26T15:47:19;100116.97;;;4.61;81.51
69842;BME280;57138;51.326;-0.068;2022-12-26T15:50:42;100114.63;;;4.58;81.12
69842;BME280;57138;51.326;-0.068;2022-12-26T15:53:04;100112.56;;;4.52;81.48
69842;BME280;57138;51.326;-0.068;2022-12-26T16:00:53;100118.22;;;4.57;81.75
69842;BME280;57138;51.326;-0.068;2022-12-26T16:03:46;100118.22;;;4.57;82.18
69842;BME280;57138;51.326;-0.068;2022-12-26T16:06:47;100123.97;;;4.53;81.67
69842;BME280;57138;51.326;-0.068;2022-12-26T16:09:48;100130.41;;;4.50;81.32
69842;BME280;57138;51.326;-0.068;2022-12-26T16:12:28;100126.09;;;4.49;81.48
69842;BME280;57138;51.326;-0.068;2022-12-26T16:15:13;100138.50;;;4.48;81.78
69842;BME280;57138;51.326;-0.068;2022-12-26T16:17:40;100131.00;;;4.44;81.50
69842;BME280;57138;51.326;-0.068;2022-12-26T16:23:15;100134.97;;;4.40;81.78
69842;BME280;57138;51.326;-0.068;2022-12-26T16:25:49;100144.16;;;4.36;82.29
69842;BME280;57138;51.326;-0.068;2022-12-26T16:28:33;100135.56;;;4.34;82.04
69842;BME280;57138;51.326;-0.068;2022-12-26T16:30:59;100134.47;;;4.26;82.41
69842;BME280;57138;51.326;-0.068;2022-12-26T16:33:29;100145.06;;;4.26;81.95
69842;BME280;57138;51.326;-0.068;2022-12-26T16:35:55;100146.34;;;4.22;82.36
69842;BME280;57138;51.326;-0.068;2022-12-26T16:38:24;100153.44;;;4.22;82.37